Datos. Málaga, Centro Meteorológico

Actualizado: domingo, 23 noviembre 2014 a las 19:32 hora oficial
Ind. climatológico: 6156X -  Altitud (m): 54
Latitud36° 43' 4'' N - Longitud4° 28' 54'' O -  PosiciónVer localización
MunicipioMálaga (Málaga) - Ver predicción
Registros - de
Fecha y hora oficial

 

Temp. (°C)

 

V. vien. (km/h)

 

Dir. viento

 

Racha (km/h)

 

Dir. racha

 

Prec. (mm)

 

Presión (hPa)

 

Tend. (hPa)

 

Humedad (%)

 

23/11/2014 19:00 19.6 9 5-SudesteSudeste 13 5-SudesteSudeste 0.0 1005.6 1.3 68
23/11/2014 18:00 19.9 10 5-SudesteSudeste 19 5-SudesteSudeste 0.0 1004.9 0.7 65
23/11/2014 17:00 20.8 9 5-SudesteSudeste 19 5-SudesteSudeste 0.0 1004.3 -0.1 64
23/11/2014 16:00 21.0 10 5-SudesteSudeste 26 5-SudesteSudeste 0.0 1004.3 -0.3 61
23/11/2014 15:00 21.5 18 5-SudesteSudeste 27 5-SudesteSudeste 0.0 1004.2 -0.8 58
23/11/2014 14:00 22.2 17 5-SudesteSudeste 36 5-SudesteSudeste 0.0 1004.4 -0.9 55
23/11/2014 13:00 22.6 20 5-SudesteSudeste 33 5-SudesteSudeste 0.0 1004.6 -0.1 52
23/11/2014 12:00 22.0 12 5-SudesteSudeste 24 5-SudesteSudeste 0.0 1005.0 0.9 51
23/11/2014 11:00 22.4 6 5-SudesteSudeste 12 5-SudesteSudeste 0.0 1005.3 1.9 51
23/11/2014 10:00 22.0 6 6-SurSur 23 4-EsteEste 0.0 1004.7 1.8 50
23/11/2014 09:00 21.5 11 4-EsteEste 31 5-SudesteSudeste 0.0 1004.1 1.3 49
23/11/2014 08:00 21.6 16 4-EsteEste 39 4-EsteEste 0.0 1003.4 0.4 47
23/11/2014 07:00 21.9 19 4-EsteEste 42 4-EsteEste 0.0 1002.9 -0.1 47
23/11/2014 06:00 21.9 22 4-EsteEste 46 5-SudesteSudeste 0.0 1002.8 -0.4 49
23/11/2014 05:00 21.8 23 4-EsteEste 48 5-SudesteSudeste 0.0 1003.0 -0.4 49
23/11/2014 04:00 22.1 25 4-EsteEste 52 5-SudesteSudeste 0.0 1003.0 -0.5 49
23/11/2014 03:00 22.5 24 5-SudesteSudeste 63 4-EsteEste 0.0 1003.2 -0.4 47
23/11/2014 02:00 22.2 30 4-EsteEste 62 4-EsteEste 0.0 1003.4 0.6 49
23/11/2014 01:00 22.3 30 4-EsteEste 62 4-EsteEste 0.0 1003.5 1.8 49
23/11/2014 00:00 21.9 30 4-EsteEste 60 4-EsteEste 0.0 1003.6 2.5 52
22/11/2014 23:00 21.6 30 4-EsteEste 71 4-EsteEste 0.0 1002.8 1.8 50
22/11/2014 22:00 23.1 37 4-EsteEste 77 4-EsteEste 0.0 1001.7 0.7 44
22/11/2014 21:00 22.8 35 4-EsteEste 69 4-EsteEste 0.0 1001.1 0.3 43
22/11/2014 20:00 23.0 35 4-EsteEste 70 4-EsteEste 0.0 1001.0 -0.5 40
First Page First Page First Page Last Page
Lineas por página
Página   de  
Compartir:  
En esta página podrá acceder, en forma gráfica y en tabla, a las observaciones horarias de las últimas 24 horas, así como a los valores extremos y acumulados desde las 00 horas del día hasta la hora de actualización indicada, obtenidos en la red de estaciones de AEMET. También podrá acceder a los resúmenes diarios de estas estaciones en los últimos 7 días.

En el mapa aparecen estaciones con valor númerico y otras representadas por un punto. En las primeras, al pasar el ratón, aparece un desplegable con la información completa de la estación. Las estaciones representadas por un punto son estaciones de la red climatológica, con transmisión de datos superior a la hora, por lo que al seleccionarlas pueden no aparecer los últimos datos.

Los datos presentados han sido únicamente sometidos a controles automáticos de calidad en tiempo real, por lo que no puede garantizarse la ausencia de errores.
© AEMET. Autorizado el uso de la información y su reproducción citando a AEMET como autora de la misma.